createdAt,value
2024-04-07T00:00:48.541Z,18.76
2024-04-07T00:01:48.700Z,18.74
2024-04-07T00:02:48.604Z,18.72
2024-04-07T00:03:48.520Z,18.71
2024-04-07T00:04:48.669Z,18.69
2024-04-07T00:05:47.701Z,18.66
2024-04-07T00:06:48.481Z,18.66
2024-04-07T00:07:47.683Z,18.64
2024-04-07T00:08:48.553Z,18.63
2024-04-07T00:09:47.666Z,18.62
2024-04-07T00:10:48.701Z,18.60
2024-04-07T00:11:48.509Z,18.58
2024-04-07T00:12:48.422Z,18.56
2024-04-07T00:13:48.582Z,18.54
2024-04-07T00:14:48.484Z,18.52
2024-04-07T00:15:48.381Z,18.49
2024-04-07T00:16:48.541Z,18.46
2024-04-07T00:17:48.444Z,18.43
2024-04-07T00:18:48.348Z,18.40
2024-04-07T00:19:48.511Z,18.37
2024-04-07T00:20:48.568Z,18.34
2024-04-07T00:21:48.319Z,18.31
2024-04-07T00:22:48.482Z,18.29
2024-04-07T00:23:48.380Z,18.26
2024-04-07T00:24:47.508Z,18.24
2024-04-07T00:25:48.489Z,18.22
2024-04-07T00:26:48.347Z,18.19
2024-04-07T00:27:48.259Z,18.16
2024-04-07T00:28:48.424Z,18.14
2024-04-07T00:29:47.454Z,18.12
2024-04-07T00:30:48.227Z,18.09
2024-04-07T00:31:47.456Z,18.08
2024-04-07T00:32:48.291Z,18.04
2024-04-07T00:33:48.188Z,18.01
2024-04-07T00:34:47.458Z,17.99
2024-04-07T00:35:48.252Z,17.98
2024-04-07T00:36:47.387Z,17.95
2024-04-07T00:37:48.323Z,17.93
2024-04-07T00:38:48.239Z,17.91
2024-04-07T00:39:48.127Z,17.89
2024-04-07T00:40:47.361Z,17.87
2024-04-07T00:41:48.189Z,17.85
2024-04-07T00:42:47.316Z,17.84
2024-04-07T00:43:48.258Z,17.83
2024-04-07T00:44:48.160Z,17.81
2024-04-07T00:45:47.309Z,17.80
2024-04-07T00:46:48.240Z,17.79
2024-04-07T00:47:47.263Z,17.78
2024-04-07T00:48:48.041Z,17.77
2024-04-07T00:49:48.199Z,17.77
2024-04-07T00:50:48.100Z,17.77
2024-04-07T00:51:47.996Z,17.76
2024-04-07T00:52:48.168Z,17.76
2024-04-07T00:53:48.059Z,17.76
2024-04-07T00:54:47.975Z,17.75
2024-04-07T00:55:48.144Z,17.75
2024-04-07T00:56:47.161Z,17.75
2024-04-07T00:57:47.934Z,17.75
2024-04-07T00:58:47.320Z,17.75
2024-04-07T00:59:47.234Z,17.74
2024-04-07T01:00:47.898Z,17.73
2024-04-07T01:01:48.101Z,17.73
2024-04-07T01:02:47.966Z,17.72
2024-04-07T01:03:47.868Z,17.72
2024-04-07T01:04:47.874Z,17.71
2024-04-07T01:05:47.951Z,17.71
2024-04-07T01:06:47.843Z,17.70
2024-04-07T01:07:48.071Z,17.70
2024-04-07T01:08:47.899Z,17.69
2024-04-07T01:09:47.812Z,17.69
2024-04-07T01:10:47.105Z,17.69
2024-04-07T01:11:47.872Z,17.69
2024-04-07T01:12:47.773Z,17.69
2024-04-07T01:13:47.965Z,17.71
2024-04-07T01:14:47.836Z,17.72
2024-04-07T01:15:47.740Z,17.74
2024-04-07T01:16:46.992Z,17.77
2024-04-07T01:17:47.821Z,17.79
2024-04-07T01:18:47.718Z,17.82
2024-04-07T01:19:48.358Z,17.86
2024-04-07T01:20:47.775Z,17.90
2024-04-07T01:21:47.675Z,17.95
2024-04-07T01:22:47.866Z,17.98
2024-04-07T01:23:47.750Z,18.02
2024-04-07T01:24:47.655Z,18.07
2024-04-07T01:25:48.324Z,18.10
2024-04-07T01:26:47.712Z,18.15
2024-04-07T01:27:47.610Z,18.19
2024-04-07T01:28:48.301Z,18.22
2024-04-07T01:29:47.693Z,18.27
2024-04-07T01:30:47.596Z,18.31
2024-04-07T01:31:47.544Z,18.34
2024-04-07T01:32:47.649Z,18.39
2024-04-07T01:33:47.563Z,18.42
2024-04-07T01:34:47.767Z,18.47
2024-04-07T01:35:47.612Z,18.52
2024-04-07T01:36:47.516Z,18.56
2024-04-07T01:37:48.188Z,18.61
2024-04-07T01:38:46.696Z,18.65
2024-04-07T01:39:47.486Z,18.69
2024-04-07T01:40:47.692Z,18.75
2024-04-07T01:41:47.548Z,18.78
2024-04-07T01:42:46.665Z,18.83
2024-04-07T01:43:47.672Z,18.88
2024-04-07T01:44:47.521Z,18.91
2024-04-07T01:45:46.640Z,18.96
2024-04-07T01:46:47.628Z,18.99
2024-04-07T01:47:47.483Z,19.03
2024-04-07T01:48:47.391Z,19.07
2024-04-07T01:49:48.033Z,19.10
2024-04-07T01:50:47.450Z,19.14
2024-04-07T01:51:48.138Z,19.17
2024-04-07T01:52:48.058Z,19.19
2024-04-07T01:53:47.427Z,19.23
2024-04-07T01:54:47.336Z,19.25
2024-04-07T01:55:47.556Z,19.28
2024-04-07T01:56:47.467Z,19.32
2024-04-07T01:57:47.296Z,19.35
2024-04-07T01:58:47.481Z,19.38
2024-04-07T01:59:47.358Z,19.40
2024-04-07T02:00:47.265Z,19.42
2024-04-07T02:01:47.454Z,19.45
2024-04-07T02:02:47.326Z,19.48
2024-04-07T02:03:47.906Z,19.51
2024-04-07T02:04:49.215Z,19.53
2024-04-07T02:05:47.293Z,19.55
2024-04-07T02:06:47.197Z,19.57
2024-04-07T02:07:47.384Z,19.59
2024-04-07T02:08:47.266Z,19.60
2024-04-07T02:09:47.168Z,19.62
2024-04-07T02:10:47.408Z,19.64
2024-04-07T02:11:47.261Z,19.66
2024-04-07T02:12:47.156Z,19.69
2024-04-07T02:13:47.335Z,19.71
2024-04-07T02:14:47.202Z,19.74
2024-04-07T02:15:47.108Z,19.75
2024-04-07T02:16:47.778Z,19.76
2024-04-07T02:17:47.174Z,19.78
2024-04-07T02:18:47.078Z,19.80
2024-04-07T02:19:47.765Z,19.81
2024-04-07T02:20:47.135Z,19.82
2024-04-07T02:21:47.292Z,19.84
2024-04-07T02:22:47.252Z,19.85
2024-04-07T02:23:47.103Z,19.87
2024-04-07T02:24:47.007Z,19.87
2024-04-07T02:25:47.168Z,19.89
2024-04-07T02:26:47.070Z,19.90
2024-04-07T02:27:46.994Z,19.92
2024-04-07T02:28:47.637Z,19.93
2024-04-07T02:29:47.041Z,19.95
2024-04-07T02:30:46.968Z,19.96
2024-04-07T02:31:47.130Z,19.99
2024-04-07T02:32:47.006Z,20.00
2024-04-07T02:33:47.168Z,20.01
2024-04-07T02:34:47.112Z,20.03
2024-04-07T02:35:47.548Z,20.03
2024-04-07T02:36:46.878Z,20.03
2024-04-07T02:37:47.052Z,20.05
2024-04-07T02:38:46.942Z,20.07
2024-04-07T02:39:46.848Z,20.09
2024-04-07T02:40:47.539Z,20.11
2024-04-07T02:41:46.909Z,20.12
2024-04-07T02:42:46.826Z,20.13
2024-04-07T02:43:47.979Z,20.15
2024-04-07T02:44:46.880Z,20.16
2024-04-07T02:45:46.783Z,20.17
2024-04-07T02:46:47.456Z,20.18
2024-04-07T02:47:46.846Z,20.19
2024-04-07T02:48:46.756Z,20.20
2024-04-07T02:49:47.435Z,20.21
2024-04-07T02:50:46.817Z,20.23
2024-04-07T02:51:46.717Z,20.23
2024-04-07T02:52:46.967Z,20.24
2024-04-07T02:53:46.782Z,20.26
2024-04-07T02:54:46.681Z,20.27
2024-04-07T02:55:46.608Z,20.28
2024-04-07T02:56:46.755Z,20.29
2024-04-07T02:57:46.664Z,20.31
2024-04-07T02:58:46.565Z,20.33
2024-04-07T02:59:46.721Z,20.34
2024-04-07T03:00:46.622Z,20.35
2024-04-07T03:01:45.870Z,20.34
2024-04-07T03:02:46.685Z,20.34
2024-04-07T03:03:46.594Z,20.34
2024-04-07T03:04:46.496Z,20.34
2024-04-07T03:05:46.655Z,20.34
2024-04-07T03:06:46.560Z,20.34
2024-04-07T03:07:46.509Z,20.34
2024-04-07T03:08:46.620Z,20.34
2024-04-07T03:09:46.525Z,20.35
2024-04-07T03:10:46.444Z,20.36
2024-04-07T03:11:46.599Z,20.36
2024-04-07T03:12:46.491Z,20.36
2024-04-07T03:13:47.199Z,20.37
2024-04-07T03:14:46.556Z,20.37
2024-04-07T03:15:46.460Z,20.37
2024-04-07T03:16:46.390Z,20.36
2024-04-07T03:17:46.527Z,20.36
2024-04-07T03:18:46.431Z,20.36
2024-04-07T03:19:46.361Z,20.35
2024-04-07T03:20:45.638Z,20.35
2024-04-07T03:21:46.396Z,20.34
2024-04-07T03:22:45.585Z,20.33
2024-04-07T03:23:46.466Z,20.32
2024-04-07T03:24:46.364Z,20.31
2024-04-07T03:25:45.588Z,20.30
2024-04-07T03:26:46.431Z,20.29
2024-04-07T03:27:46.333Z,20.27
2024-04-07T03:28:46.269Z,20.26
2024-04-07T03:29:46.396Z,20.24
2024-04-07T03:30:46.303Z,20.22
2024-04-07T03:31:46.233Z,20.22
2024-04-07T03:32:46.368Z,20.20
2024-04-07T03:33:46.288Z,20.19
2024-04-07T03:34:46.180Z,20.17
2024-04-07T03:35:46.332Z,20.15
2024-04-07T03:36:46.234Z,20.13
2024-04-07T03:37:46.149Z,20.12
2024-04-07T03:38:46.302Z,20.10
2024-04-07T03:39:46.293Z,20.09
2024-04-07T03:40:46.127Z,20.07
2024-04-07T03:41:46.271Z,20.05
2024-04-07T03:42:46.174Z,20.02
2024-04-07T03:43:46.103Z,20.01
2024-04-07T03:44:46.245Z,19.98
2024-04-07T03:45:45.349Z,19.96
2024-04-07T03:46:46.069Z,19.93
2024-04-07T03:47:46.216Z,19.91
2024-04-07T03:48:46.113Z,19.90
2024-04-07T03:49:46.026Z,19.88
2024-04-07T03:50:46.172Z,19.85
2024-04-07T03:51:46.077Z,19.83
2024-04-07T03:52:45.991Z,19.81
2024-04-07T03:53:46.151Z,19.78
2024-04-07T03:54:46.042Z,19.76
2024-04-07T03:55:45.980Z,19.74
2024-04-07T03:56:46.121Z,19.73
2024-04-07T03:57:46.016Z,19.70
2024-04-07T03:58:45.942Z,19.68
2024-04-07T03:59:46.077Z,19.66
2024-04-07T04:00:45.979Z,19.63
2024-04-07T04:01:45.905Z,19.61
2024-04-07T04:02:46.070Z,19.59
2024-04-07T04:03:47.026Z,19.57
2024-04-07T04:04:45.865Z,19.56
2024-04-07T04:05:46.013Z,19.54
2024-04-07T04:06:45.926Z,19.53
2024-04-07T04:07:45.843Z,19.51
2024-04-07T04:08:45.982Z,19.50
2024-04-07T04:09:45.908Z,19.49
2024-04-07T04:10:45.831Z,19.48
2024-04-07T04:11:45.956Z,19.46
2024-04-07T04:12:45.859Z,19.45
2024-04-07T04:13:45.808Z,19.44
2024-04-07T04:14:45.919Z,19.42
2024-04-07T04:15:45.819Z,19.41
2024-04-07T04:16:45.727Z,19.40
2024-04-07T04:17:45.886Z,19.38
2024-04-07T04:18:45.793Z,19.37
2024-04-07T04:19:45.757Z,19.35
2024-04-07T04:20:45.854Z,19.35
2024-04-07T04:21:45.758Z,19.33
2024-04-07T04:22:45.671Z,19.31
2024-04-07T04:23:45.821Z,19.29
2024-04-07T04:24:45.730Z,19.28
2024-04-07T04:25:45.906Z,19.28
2024-04-07T04:26:45.792Z,19.26
2024-04-07T04:27:45.692Z,19.25
2024-04-07T04:28:45.642Z,19.25
2024-04-07T04:29:44.859Z,19.23
2024-04-07T04:30:44.844Z,19.22
2024-04-07T04:31:44.842Z,19.21
2024-04-07T04:32:45.734Z,19.19
2024-04-07T04:33:45.632Z,19.18
2024-04-07T04:34:45.570Z,19.17
2024-04-07T04:35:45.718Z,19.15
2024-04-07T04:36:45.599Z,19.14
2024-04-07T04:37:45.556Z,19.13
2024-04-07T04:38:45.671Z,19.11
2024-04-07T04:39:45.596Z,19.10
2024-04-07T04:40:45.466Z,19.08
2024-04-07T04:41:45.631Z,19.07
2024-04-07T04:42:45.537Z,19.06
2024-04-07T04:43:45.712Z,19.05
2024-04-07T04:44:45.600Z,19.04
2024-04-07T04:45:45.500Z,19.03
2024-04-07T04:46:45.407Z,19.02
2024-04-07T04:47:45.567Z,19.00
2024-04-07T04:48:45.476Z,18.98
2024-04-07T04:49:44.643Z,18.98
2024-04-07T04:50:45.532Z,18.98
2024-04-07T04:51:45.436Z,18.96
2024-04-07T04:52:45.339Z,18.95
2024-04-07T04:53:47.075Z,18.94
2024-04-07T04:54:45.444Z,18.93
2024-04-07T04:55:45.312Z,18.92
2024-04-07T04:56:45.474Z,18.91
2024-04-07T04:57:45.374Z,18.90
2024-04-07T04:58:44.559Z,18.90
2024-04-07T04:59:45.578Z,18.89
2024-04-07T05:00:45.343Z,18.88
2024-04-07T05:01:45.246Z,18.88
2024-04-07T05:02:45.425Z,18.87
2024-04-07T05:03:45.330Z,18.86
2024-04-07T05:04:45.215Z,18.85
2024-04-07T05:05:45.373Z,18.85
2024-04-07T05:06:45.275Z,18.86
2024-04-07T05:07:45.178Z,18.85
2024-04-07T05:08:45.339Z,18.84
2024-04-07T05:09:45.245Z,18.83
2024-04-07T05:10:45.175Z,18.83
2024-04-07T05:11:45.307Z,18.83
2024-04-07T05:12:45.215Z,18.83
2024-04-07T05:13:45.114Z,18.82
2024-04-07T05:14:45.278Z,18.82
2024-04-07T05:15:45.183Z,18.82
2024-04-07T05:16:45.088Z,18.81
2024-04-07T05:17:47.857Z,18.80
2024-04-07T05:18:44.351Z,18.80
2024-04-07T05:19:45.065Z,18.79
2024-04-07T05:20:45.212Z,18.79
2024-04-07T05:21:44.296Z,18.79
2024-04-07T05:22:45.019Z,18.78
2024-04-07T05:23:45.177Z,18.79
2024-04-07T05:24:45.080Z,18.79
2024-04-07T05:25:44.251Z,18.79
2024-04-07T05:26:45.149Z,18.80
2024-04-07T05:27:45.050Z,18.80
2024-04-07T05:28:44.965Z,18.81
2024-04-07T05:29:45.118Z,18.82
2024-04-07T05:30:44.244Z,18.84
2024-04-07T05:31:44.955Z,18.84
2024-04-07T05:32:44.169Z,18.85
2024-04-07T05:33:44.166Z,18.86
2024-04-07T05:34:44.894Z,18.86
2024-04-07T05:35:45.052Z,18.87
2024-04-07T05:36:44.957Z,18.87
2024-04-07T05:37:44.863Z,18.88
2024-04-07T05:38:44.095Z,18.89
2024-04-07T05:39:44.924Z,18.88
2024-04-07T05:40:44.828Z,18.88
2024-04-07T05:41:46.024Z,18.88
2024-04-07T05:42:44.899Z,18.88
2024-04-07T05:43:44.801Z,18.88
2024-04-07T05:44:44.962Z,18.87
2024-04-07T05:45:44.860Z,18.87
2024-04-07T05:46:44.771Z,18.88
2024-04-07T05:47:44.931Z,18.88
2024-04-07T05:48:48.352Z,18.88
2024-04-07T05:49:45.431Z,18.89
2024-04-07T05:50:44.904Z,18.88
2024-04-07T05:51:44.812Z,18.89
2024-04-07T05:52:44.699Z,18.88
2024-04-07T05:53:44.873Z,18.87
2024-04-07T05:54:44.768Z,18.86
2024-04-07T05:55:44.670Z,18.87
2024-04-07T05:56:44.830Z,18.86
2024-04-07T05:57:44.742Z,18.87
2024-04-07T05:58:46.339Z,18.87
2024-04-07T05:59:44.808Z,18.88
2024-04-07T06:00:44.709Z,18.89
2024-04-07T06:01:43.864Z,18.90
2024-04-07T06:02:43.834Z,18.91
2024-04-07T06:03:43.834Z,18.93
2024-04-07T06:04:44.584Z,18.94
2024-04-07T06:05:44.748Z,18.95
2024-04-07T06:06:43.802Z,18.96
2024-04-07T06:07:45.401Z,18.97
2024-04-07T06:08:43.775Z,18.99
2024-04-07T06:09:43.770Z,19.01
2024-04-07T06:10:44.553Z,19.04
2024-04-07T06:11:44.669Z,19.07
2024-04-07T06:12:43.747Z,19.11
2024-04-07T06:13:43.726Z,19.15
2024-04-07T06:14:43.720Z,19.18
2024-04-07T06:15:44.545Z,19.21
2024-04-07T06:16:43.706Z,19.23
2024-04-07T06:17:43.675Z,19.25
2024-04-07T06:18:43.660Z,19.27
2024-04-07T06:19:44.413Z,19.30
2024-04-07T06:20:44.573Z,19.34
2024-04-07T06:21:44.479Z,19.39
2024-04-07T06:22:44.382Z,19.44
2024-04-07T06:23:44.544Z,19.50
2024-04-07T06:24:43.600Z,19.57
2024-04-07T06:25:44.367Z,19.63
2024-04-07T06:26:43.570Z,19.70
2024-04-07T06:27:43.594Z,19.78
2024-04-07T06:28:43.557Z,19.85
2024-04-07T06:29:43.555Z,19.90
2024-04-07T06:30:44.379Z,19.95
2024-04-07T06:31:44.284Z,20.01
2024-04-07T06:32:44.451Z,20.07
2024-04-07T06:33:45.962Z,20.15
2024-04-07T06:34:43.491Z,20.21
2024-04-07T06:35:43.501Z,20.24
2024-04-07T06:36:44.317Z,20.27
2024-04-07T06:37:44.222Z,20.27
2024-04-07T06:38:44.397Z,20.28
2024-04-07T06:39:44.289Z,20.27
2024-04-07T06:40:43.456Z,20.28
2024-04-07T06:41:44.354Z,20.27
2024-04-07T06:42:43.431Z,20.27
2024-04-07T06:43:44.160Z,20.26
2024-04-07T06:44:44.331Z,20.26
2024-04-07T06:45:44.223Z,20.28
2024-04-07T06:46:44.127Z,20.33
2024-04-07T06:47:44.298Z,20.42
2024-04-07T06:48:44.189Z,20.56
2024-04-07T06:49:43.332Z,20.76
2024-04-07T06:50:44.260Z,20.97
2024-04-07T06:51:44.157Z,21.19
2024-04-07T06:52:43.334Z,21.41
2024-04-07T06:53:44.229Z,21.67
2024-04-07T06:54:44.131Z,22.04
2024-04-07T06:55:44.027Z,22.39
2024-04-07T06:56:44.192Z,22.66
2024-04-07T06:57:44.096Z,22.83
2024-04-07T06:58:43.249Z,23.06
2024-04-07T06:59:44.163Z,23.43
2024-04-07T07:00:44.074Z,23.62
2024-04-07T07:01:43.259Z,23.73
2024-04-07T07:02:44.129Z,23.76
2024-04-07T07:03:44.174Z,23.69
2024-04-07T07:04:43.162Z,23.57
2024-04-07T07:05:44.091Z,23.42
2024-04-07T07:06:43.995Z,23.28
2024-04-07T07:07:43.904Z,23.15
2024-04-07T07:08:45.085Z,23.06
2024-04-07T07:09:43.116Z,22.97
2024-04-07T07:10:43.155Z,22.89
2024-04-07T07:11:44.029Z,22.83
2024-04-07T07:12:43.938Z,22.78
2024-04-07T07:13:43.838Z,22.72
2024-04-07T07:14:43.997Z,22.69
2024-04-07T07:15:43.900Z,22.66
2024-04-07T07:16:43.817Z,22.64
2024-04-07T07:17:43.964Z,22.67
2024-04-07T07:18:43.876Z,22.59
2024-04-07T07:19:43.773Z,22.51
2024-04-07T07:20:43.950Z,22.45
2024-04-07T07:21:43.853Z,22.40
2024-04-07T07:22:43.744Z,22.36
2024-04-07T07:23:43.920Z,22.34
2024-04-07T07:24:43.822Z,22.35
2024-04-07T07:25:43.714Z,22.39
2024-04-07T07:26:43.872Z,22.47
2024-04-07T07:27:43.787Z,22.56
2024-04-07T07:28:43.677Z,22.71
2024-04-07T07:29:43.837Z,22.86
2024-04-07T07:30:43.767Z,23.06
2024-04-07T07:31:43.650Z,23.26
2024-04-07T07:32:43.812Z,23.36
2024-04-07T07:33:43.715Z,23.44
2024-04-07T07:34:42.844Z,23.50
2024-04-07T07:35:42.843Z,23.53
2024-04-07T07:36:42.871Z,23.56
2024-04-07T07:37:42.830Z,23.64
2024-04-07T07:38:42.840Z,23.72
2024-04-07T07:39:43.654Z,23.86
2024-04-07T07:40:43.550Z,24.04
2024-04-07T07:41:44.715Z,24.22
2024-04-07T07:42:43.619Z,24.33
2024-04-07T07:43:43.520Z,24.38
2024-04-07T07:44:43.690Z,24.35
2024-04-07T07:45:43.589Z,24.25
2024-04-07T07:46:43.511Z,24.15
2024-04-07T07:47:43.644Z,24.10
2024-04-07T07:48:43.547Z,24.06
2024-04-07T07:49:43.487Z,24.01
2024-04-07T07:50:43.616Z,23.96
2024-04-07T07:51:43.540Z,23.83
2024-04-07T07:52:42.719Z,23.69
2024-04-07T07:53:43.580Z,23.57
2024-04-07T07:54:43.491Z,23.46
2024-04-07T07:55:43.396Z,23.36
2024-04-07T07:56:43.552Z,23.27
2024-04-07T07:57:43.455Z,23.19
2024-04-07T07:58:43.360Z,23.14
2024-04-07T07:59:43.527Z,23.10
2024-04-07T08:00:43.434Z,23.05
2024-04-07T08:01:43.358Z,23.00
2024-04-07T08:02:43.499Z,22.95
2024-04-07T08:03:43.390Z,22.91
2024-04-07T08:04:43.292Z,22.84
2024-04-07T08:05:43.458Z,22.78
2024-04-07T08:06:45.645Z,22.70
2024-04-07T08:07:43.279Z,22.62
2024-04-07T08:08:43.472Z,22.58
2024-04-07T08:09:43.323Z,22.56
2024-04-07T08:10:43.501Z,22.61
2024-04-07T08:11:43.390Z,22.69
2024-04-07T08:12:43.304Z,22.75
2024-04-07T08:13:43.204Z,22.74
2024-04-07T08:14:43.368Z,22.70
2024-04-07T08:15:43.260Z,22.65
2024-04-07T08:16:43.184Z,22.65
2024-04-07T08:17:43.324Z,22.72
2024-04-07T08:18:43.230Z,22.92
2024-04-07T08:19:43.174Z,23.16
2024-04-07T08:20:43.296Z,23.18
2024-04-07T08:21:43.213Z,23.13
2024-04-07T08:22:43.357Z,23.14
2024-04-07T08:23:43.288Z,23.59
2024-04-07T08:24:43.176Z,23.85
2024-04-07T08:25:43.070Z,23.88
2024-04-07T08:26:43.229Z,23.86
2024-04-07T08:27:43.135Z,23.80
2024-04-07T08:28:43.293Z,23.74
2024-04-07T08:29:43.199Z,23.74
2024-04-07T08:30:43.102Z,23.75
2024-04-07T08:31:43.008Z,23.83
2024-04-07T08:32:43.171Z,23.98
2024-04-07T08:33:43.072Z,24.17
2024-04-07T08:34:42.974Z,24.60
2024-04-07T08:35:43.636Z,24.64
2024-04-07T08:36:43.040Z,24.68
2024-04-07T08:37:42.946Z,24.76
2024-04-07T08:38:43.103Z,24.84
2024-04-07T08:39:42.141Z,24.91
2024-04-07T08:40:43.170Z,25.12
2024-04-07T08:41:42.180Z,25.33
2024-04-07T08:42:42.992Z,25.74
2024-04-07T08:43:42.889Z,26.15
2024-04-07T08:44:43.036Z,26.74
2024-04-07T08:45:42.945Z,27.12
2024-04-07T08:46:44.667Z,26.94
2024-04-07T08:47:43.008Z,26.86
2024-04-07T08:48:42.909Z,26.95
2024-04-07T08:49:42.815Z,27.07
2024-04-07T08:50:42.974Z,27.44
2024-04-07T08:51:44.469Z,27.84
2024-04-07T08:52:43.034Z,28.45
2024-04-07T08:53:43.442Z,28.96
2024-04-07T08:54:42.868Z,29.02
2024-04-07T08:55:42.752Z,29.25
2024-04-07T08:56:42.922Z,29.30
2024-04-07T08:57:42.814Z,29.30
2024-04-07T08:58:42.757Z,29.50
2024-04-07T08:59:42.877Z,29.84
2024-04-07T09:00:42.782Z,29.89
2024-04-07T09:01:42.689Z,30.28
2024-04-07T09:02:42.845Z,30.36
2024-04-07T09:03:42.751Z,30.51
2024-04-07T09:04:42.654Z,30.73
2024-04-07T09:05:42.843Z,30.58
2024-04-07T09:06:42.721Z,30.73
2024-04-07T09:07:42.624Z,30.82
2024-04-07T09:08:42.794Z,30.88
2024-04-07T09:09:41.829Z,30.94
2024-04-07T09:10:41.866Z,31.15
2024-04-07T09:11:43.236Z,31.19
2024-04-07T09:12:42.655Z,31.15
2024-04-07T09:13:42.558Z,31.03
2024-04-07T09:14:42.718Z,30.90
2024-04-07T09:15:42.625Z,30.77
2024-04-07T09:16:42.527Z,30.56
2024-04-07T09:17:42.685Z,30.33
2024-04-07T09:18:42.590Z,30.19
2024-04-07T09:19:42.493Z,30.07
2024-04-07T09:20:42.656Z,29.94
2024-04-07T09:21:42.581Z,29.75
2024-04-07T09:22:42.462Z,29.53
2024-04-07T09:23:43.127Z,29.32
2024-04-07T09:24:42.532Z,29.12
2024-04-07T09:25:42.882Z,28.91
2024-04-07T09:26:42.588Z,28.73
2024-04-07T09:27:42.493Z,28.59
2024-04-07T09:28:42.398Z,28.58
2024-04-07T09:29:43.050Z,28.72
2024-04-07T09:30:42.465Z,28.77
2024-04-07T09:31:42.366Z,28.75
2024-04-07T09:32:42.526Z,28.75
2024-04-07T09:33:42.431Z,28.85
2024-04-07T09:34:42.339Z,28.95
2024-04-07T09:35:42.492Z,28.99
2024-04-07T09:36:42.396Z,29.01
2024-04-07T09:37:41.515Z,29.02
2024-04-07T09:38:42.463Z,29.09
2024-04-07T09:39:42.367Z,29.14
2024-04-07T09:40:42.549Z,29.07
2024-04-07T09:41:42.430Z,28.98
2024-04-07T09:42:41.460Z,28.96
2024-04-07T09:43:41.451Z,29.03
2024-04-07T09:44:42.400Z,29.13
2024-04-07T09:45:42.320Z,29.26
2024-04-07T09:46:42.716Z,29.39
2024-04-07T09:47:42.368Z,29.53
2024-04-07T09:48:42.270Z,29.70
2024-04-07T09:49:42.173Z,29.83
2024-04-07T09:50:42.338Z,29.93
2024-04-07T09:51:42.247Z,29.97
2024-04-07T09:52:42.141Z,29.99
2024-04-07T09:53:42.426Z,30.01
2024-04-07T09:54:42.210Z,30.18
2024-04-07T09:55:42.130Z,30.36
2024-04-07T09:56:42.272Z,30.55
2024-04-07T09:57:42.171Z,30.75
2024-04-07T09:58:42.078Z,30.95
2024-04-07T09:59:42.240Z,31.18
2024-04-07T10:00:42.151Z,31.36
2024-04-07T10:01:42.047Z,31.47
2024-04-07T10:02:42.204Z,31.49
2024-04-07T10:03:42.109Z,31.46
2024-04-07T10:04:42.272Z,31.51
2024-04-07T10:05:42.175Z,31.54
2024-04-07T10:06:42.078Z,31.52
2024-04-07T10:07:41.990Z,31.59
2024-04-07T10:08:42.143Z,31.64
2024-04-07T10:09:42.057Z,31.73
2024-04-07T10:10:47.014Z,31.76
2024-04-07T10:11:43.610Z,31.89
2024-04-07T10:12:42.015Z,31.96
2024-04-07T10:13:41.346Z,31.96
2024-04-07T10:14:41.137Z,31.95
2024-04-07T10:15:41.984Z,31.98
2024-04-07T10:16:42.144Z,31.94
2024-04-07T10:17:41.091Z,31.79
2024-04-07T10:18:41.405Z,31.40
2024-04-07T10:19:41.859Z,30.96
2024-04-07T10:20:41.077Z,30.53
2024-04-07T10:21:41.919Z,30.13
2024-04-07T10:22:41.824Z,29.75
2024-04-07T10:23:41.037Z,29.38
2024-04-07T10:24:41.022Z,29.02
2024-04-07T10:25:41.814Z,28.71
2024-04-07T10:26:41.951Z,28.42
2024-04-07T10:27:41.854Z,28.14
2024-04-07T10:28:41.757Z,27.94
2024-04-07T10:29:40.964Z,27.75
2024-04-07T10:30:41.868Z,27.61
2024-04-07T10:31:41.725Z,27.47
2024-04-07T10:32:41.884Z,27.35
2024-04-07T10:33:41.790Z,27.23
2024-04-07T10:34:41.711Z,27.11
2024-04-07T10:35:41.853Z,27.01
2024-04-07T10:36:41.758Z,26.97
2024-04-07T10:37:41.661Z,26.92
2024-04-07T10:38:42.322Z,26.90
2024-04-07T10:39:41.726Z,26.91
2024-04-07T10:40:41.631Z,26.91
2024-04-07T10:41:41.790Z,26.92
2024-04-07T10:42:42.024Z,26.96
2024-04-07T10:43:41.597Z,27.00
2024-04-07T10:44:41.761Z,27.04
2024-04-07T10:45:40.790Z,27.17
2024-04-07T10:46:40.896Z,27.31
2024-04-07T10:47:40.773Z,27.45
2024-04-07T10:48:42.174Z,27.56
2024-04-07T10:49:41.532Z,27.63
2024-04-07T10:50:41.690Z,27.67
2024-04-07T10:51:41.596Z,27.69
2024-04-07T10:52:41.499Z,27.75
2024-04-07T10:53:41.665Z,27.81
2024-04-07T10:54:41.850Z,27.89
2024-04-07T10:55:41.473Z,27.95
2024-04-07T10:56:41.639Z,27.99
2024-04-07T10:57:41.531Z,28.01
2024-04-07T10:58:41.725Z,28.03
2024-04-07T10:59:41.595Z,28.03
2024-04-07T11:00:41.530Z,28.00
2024-04-07T11:01:41.419Z,27.97
2024-04-07T11:02:41.563Z,27.90
2024-04-07T11:03:41.472Z,27.84
2024-04-07T11:04:41.374Z,27.78
2024-04-07T11:05:41.539Z,27.73
2024-04-07T11:06:41.436Z,27.67
2024-04-07T11:07:41.344Z,27.63
2024-04-07T11:08:41.509Z,27.58
2024-04-07T11:09:41.411Z,27.53
2024-04-07T11:10:41.589Z,27.46
2024-04-07T11:11:41.467Z,27.37
2024-04-07T11:12:41.743Z,27.30
2024-04-07T11:13:41.280Z,27.23
2024-04-07T11:14:41.438Z,27.17
2024-04-07T11:15:41.340Z,27.14
2024-04-07T11:16:41.256Z,27.12
2024-04-07T11:17:44.269Z,27.07
2024-04-07T11:18:41.318Z,27.03
2024-04-07T11:19:41.216Z,27.00
2024-04-07T11:20:41.385Z,26.98
2024-04-07T11:21:41.277Z,26.95
2024-04-07T11:22:41.439Z,26.95
2024-04-07T11:23:54.724Z,26.91
2024-04-07T11:24:41.246Z,26.89
2024-04-07T11:25:41.157Z,26.86
2024-04-07T11:26:41.315Z,26.83
2024-04-07T11:27:41.215Z,26.80
2024-04-07T11:28:41.375Z,26.76
2024-04-07T11:29:41.276Z,26.74
2024-04-07T11:30:41.187Z,26.73
2024-04-07T11:31:41.084Z,26.70
2024-04-07T11:32:41.364Z,26.68
2024-04-07T11:33:41.152Z,26.66
2024-04-07T11:34:42.278Z,26.65
2024-04-07T11:35:41.692Z,26.62
2024-04-07T11:36:41.120Z,26.60
2024-04-07T11:37:41.026Z,26.56
2024-04-07T11:38:41.173Z,26.52
2024-04-07T11:39:46.036Z,26.48
2024-04-07T11:40:42.270Z,26.44
2024-04-07T11:41:41.142Z,26.42
2024-04-07T11:42:41.054Z,26.40
2024-04-07T11:43:40.958Z,26.37
2024-04-07T11:44:41.107Z,26.34
2024-04-07T11:45:41.026Z,26.32
2024-04-07T11:46:44.060Z,26.28
2024-04-07T11:47:41.069Z,26.23
2024-04-07T11:48:40.991Z,26.18
2024-04-07T11:49:40.892Z,26.16
2024-04-07T11:50:41.059Z,26.12
2024-04-07T11:51:40.959Z,26.09
2024-04-07T11:52:41.117Z,26.05
2024-04-07T11:53:41.024Z,26.02
2024-04-07T11:54:40.925Z,26.00
2024-04-07T11:55:40.829Z,25.95
2024-04-07T11:56:40.991Z,25.92
2024-04-07T11:57:40.894Z,25.88
2024-04-07T11:58:40.799Z,25.85
2024-04-07T11:59:40.956Z,25.83
2024-04-07T12:00:40.874Z,25.79
2024-04-07T12:01:40.768Z,25.78
2024-04-07T12:02:40.925Z,25.76
2024-04-07T12:03:40.830Z,25.75
2024-04-07T12:04:40.734Z,25.74
2024-04-07T12:05:40.900Z,25.73
2024-04-07T12:06:40.800Z,25.73
2024-04-07T12:07:40.704Z,25.72
2024-04-07T12:08:42.359Z,25.72
2024-04-07T12:09:40.763Z,25.72
2024-04-07T12:10:40.720Z,25.71
2024-04-07T12:11:40.863Z,25.71
2024-04-07T12:12:41.760Z,25.71
2024-04-07T12:13:40.727Z,25.71
2024-04-07T12:14:40.791Z,25.71
2024-04-07T12:15:40.727Z,25.72
2024-04-07T12:16:40.865Z,25.74
2024-04-07T12:17:40.757Z,25.75
2024-04-07T12:18:40.742Z,25.77
2024-04-07T12:19:40.585Z,25.82
2024-04-07T12:20:40.726Z,25.85
2024-04-07T12:21:40.769Z,25.87
2024-04-07T12:22:40.766Z,25.87
2024-04-07T12:23:40.748Z,25.87
2024-04-07T12:24:40.668Z,25.87
2024-04-07T12:25:40.522Z,25.89
2024-04-07T12:26:40.645Z,25.92
2024-04-07T12:27:40.608Z,25.93
2024-04-07T12:28:42.297Z,25.94
2024-04-07T12:29:40.675Z,25.94
2024-04-07T12:30:40.650Z,25.94
2024-04-07T12:31:40.446Z,25.93
2024-04-07T12:32:40.661Z,25.92
2024-04-07T12:33:40.537Z,25.90
2024-04-07T12:34:40.417Z,25.88
2024-04-07T12:35:40.621Z,25.86
2024-04-07T12:36:40.477Z,25.84
2024-04-07T12:37:40.381Z,25.83
2024-04-07T12:38:40.541Z,25.84
2024-04-07T12:39:40.445Z,25.82
2024-04-07T12:40:40.652Z,25.79
2024-04-07T12:41:40.510Z,25.76
2024-04-07T12:42:40.414Z,25.75
2024-04-07T12:43:40.324Z,25.72
2024-04-07T12:44:40.462Z,25.70
2024-04-07T12:45:40.381Z,25.68
2024-04-07T12:46:40.287Z,25.65
2024-04-07T12:47:40.435Z,25.64
2024-04-07T12:48:40.351Z,25.61
2024-04-07T12:49:40.254Z,25.59
2024-04-07T12:50:40.393Z,25.56
2024-04-07T12:51:40.322Z,25.53
2024-04-07T12:52:40.230Z,25.50